This is the latest recevied weather packets stored in our database for station/object W4DHW-4. If no packets are shown the sender has not sent any weather packets the latest 10 day(s).
| Time | Temp. | Humidity | Pressure | Rain* | Wind** | Luminosity | Snow |
|---|---|---|---|---|---|---|---|
| 1778075712 | 15.56° C | 95% | 1011.9 hPa | 1.27 mm | - | 164 W/m² | - |
| 1778075408 | 15.56° C | 95% | 1012 hPa | 0 mm | - | 111 W/m² | - |
| 1778075103 | 15.56° C | 95% | 1012.4 hPa | 1.78 mm | - | 85 W/m² | - |
| 1778074800 | 15.56° C | 95% | 1012.3 hPa | 1.78 mm | - | 92 W/m² | - |
| 1778074497 | 15.56° C | 95% | 1012 hPa | 0 mm | - | 114 W/m² | - |
| 1778074194 | 15.56° C | 95% | 1012.1 hPa | 0 mm | - | 70 W/m² | - |
| 1778073892 | 15° C | 94% | 1012.1 hPa | 0 mm | - | 50 W/m² | - |
| 1778073588 | 15° C | 94% | 1012 hPa | 0 mm | - | 62 W/m² | - |
| 1778073285 | 15° C | 94% | 1011.8 hPa | 1.27 mm | - | 56 W/m² | - |
| 1778072982 | 15.56° C | 94% | 1012 hPa | 1.27 mm | - | 45 W/m² | - |
| 1778072679 | 15° C | 94% | 1012 hPa | 0 mm | - | 39 W/m² | - |
| 1778072376 | 15.56° C | 94% | 1012 hPa | 0 mm | - | 33 W/m² | - |
| 1778072075 | 15.56° C | 93% | 1011.6 hPa | 0 mm | - | 64 W/m² | - |
| 1778071772 | 15° C | 93% | 1012 hPa | 0 mm | - | 48 W/m² | - |
| 1778071469 | 15° C | 93% | 1011.8 hPa | 0 mm | - | 57 W/m² | - |
| 1778071167 | 15° C | 92% | 1011.8 hPa | 0 mm | - | 37 W/m² | - |
| 1778070865 | 15.56° C | 92% | 1011.6 hPa | 0 mm | - | 35 W/m² | - |
| 1778070562 | 15.56° C | 92% | 1011.3 hPa | 1.78 mm | - | 54 W/m² | - |
| 1778070259 | 15.56° C | 91% | 1011.2 hPa | 3.05 mm | - | 42 W/m² | - |
| 1778069958 | 15.56° C | 90% | 1011.4 hPa | 1.27 mm | - | 23 W/m² | - |
| 1778069654 | 15.56° C | 89% | 1011.7 hPa | 1.78 mm | - | 18 W/m² | - |
| 1778069351 | 15.56° C | 88% | 1011.6 hPa | 1.78 mm | - | 22 W/m² | - |
| 1778069049 | 15.56° C | 87% | 1011.5 hPa | 3.05 mm | - | 15 W/m² | - |
| 1778068746 | 16.11° C | 85% | 1011.5 hPa | 1.27 mm | - | 19 W/m² | - |
| 1778068444 | 16.67° C | 84% | 1011.5 hPa | 1.78 mm | - | 18 W/m² | - |
* Rain latest hour (hover to see other rain measurements)
** Current wind speed in m/s (hover to see current wind gust speed)